Westbrook, Texas
Current Conditions -  °F | °C
As of 11:15 AM on Friday 31 Oct 2014 (Local Time) from KSNK Reporting Station
Clear Clear  
Wind Chill: 57°   Ceiling: Unl
Heat Index: 57°   Visibility: 10mi
Dew Point: 37°   Wind: 14mph
Humidity: 47%   Direction: 60°ENE
Pressure: 30.44"   Gusts: 20mph
Location:  32.36°N, 101.01°W
Report Text: KSNK 311615Z AUTO 06012G17KT 10SM CLR 14/03 A3044 RMK AO2 T01370025
Loading
Personal Weather Stations






























Interactive Weather Map
Tropical Storm Tracking
New forecast layout! Learn more

10-Day Weather Forecast

Advertisements
Track Severe Weather on mobile